Time;durP1;ratioP1;P1;durP2;ratioP2;P2;SDS_P1;SDS_P2;PMS_P1;PMS_P2;Temp;Humidity;BMP_temperature;BMP_pressure;BME280_temperature;BME280_humidity;BME280_pressure;Samples;Min_cycle;Max_cycle;Signal;HPM_P1;HPM_P2
2023/03/31 00:01:28;;;;;;;12.73;5.13;;;;;;;10.49;46.03;101206.16;5051050;28;20821;-73
2023/03/31 00:04:00;;;;;;;12.95;5.25;;;;;;;10.63;46.06;101203.94;5051135;28;20896;-73
2023/03/31 00:06:27;;;;;;;9.13;4.20;;;;;;;10.65;45.90;101205.41;5051041;28;20381;-74
2023/03/31 00:08:53;;;;;;;9.30;3.72;;;;;;;10.61;45.88;101203.25;5051031;28;20410;-73
2023/03/31 00:11:21;;;;;;;9.07;4.53;;;;;;;10.70;46.02;101194.34;5050358;28;20466;-73
2023/03/31 00:13:47;;;;;;;11.77;5.70;;;;;;;10.69;45.76;101201.44;5050868;28;20384;-73
2023/03/31 00:16:13;;;;;;;10.40;4.43;;;;;;;10.65;45.76;101201.94;5050677;28;20419;-73
2023/03/31 00:18:46;;;;;;;10.90;4.70;;;;;;;10.80;45.62;101200.34;5050261;28;20534;-73
2023/03/31 00:21:23;;;;;;;10.35;4.07;;;;;;;10.97;45.56;101203.06;5050804;28;20493;-73
2023/03/31 00:23:58;;;;;;;8.60;3.72;;;;;;;10.96;45.78;101202.22;5050893;28;20395;-74
2023/03/31 00:26:25;;;;;;;9.38;4.00;;;;;;;10.87;45.91;101209.31;5050782;28;20408;-74
2023/03/31 00:28:51;;;;;;;9.27;3.70;;;;;;;10.77;46.53;101194.53;5050775;28;20375;-74
2023/03/31 00:31:16;;;;;;;8.98;3.67;;;;;;;10.76;46.63;101203.47;5050518;28;20377;-74
2023/03/31 00:33:42;;;;;;;10.23;4.17;;;;;;;10.68;47.05;101206.94;5050484;28;20438;-74
2023/03/31 00:36:08;;;;;;;7.50;4.00;;;;;;;10.76;47.11;101198.19;5050227;28;20396;-74
2023/03/31 00:38:34;;;;;;;8.30;3.85;;;;;;;10.95;47.19;101207.69;5050406;28;20416;-74
2023/03/31 00:41:00;;;;;;;10.27;4.60;;;;;;;11.06;46.89;101204.75;5050089;28;20741;-74
2023/03/31 00:43:31;;;;;;;8.77;3.93;;;;;;;11.06;47.09;101213.53;5049995;28;20451;-74
2023/03/31 00:46:06;;;;;;;10.55;4.35;;;;;;;10.93;47.70;101202.56;5050172;28;20442;-74
2023/03/31 00:48:33;;;;;;;7.70;3.50;;;;;;;11.04;47.61;101202.25;5045894;28;20484;-74
2023/03/31 00:51:04;;;;;;;11.93;3.97;;;;;;;11.14;47.49;101188.84;5050260;28;20533;-74
2023/03/31 00:53:31;;;;;;;10.43;4.53;;;;;;;11.04;47.79;101180.22;5050091;28;20388;-74
2023/03/31 00:56:03;;;;;;;10.40;4.80;;;;;;;11.09;47.56;101176.09;5049562;28;20384;-74
2023/03/31 00:58:32;;;;;;;8.80;3.60;;;;;;;11.11;47.59;101178.59;5049899;28;20381;-74
2023/03/31 01:01:01;;;;;;;11.50;4.65;;;;;;;11.17;47.81;101193.84;5049699;28;20369;-74
2023/03/31 01:03:29;;;;;;;11.52;4.35;;;;;;;11.20;47.79;101182.06;5049974;28;20939;-74
2023/03/31 01:06:03;;;;;;;9.20;4.70;;;;;;;11.14;48.29;101186.19;5050016;28;20368;-74
2023/03/31 01:08:30;;;;;;;9.63;4.15;;;;;;;11.16;47.84;101170.94;5049569;28;20412;-74
2023/03/31 01:11:00;;;;;;;9.02;4.07;;;;;;;11.25;48.05;101164.69;5049987;28;20463;-74
2023/03/31 01:13:27;;;;;;;8.80;3.95;;;;;;;11.38;47.66;101176.63;5049887;28;20377;-73
2023/03/31 01:15:53;;;;;;;10.95;4.10;;;;;;;11.46;47.78;101171.34;5049669;28;20451;-74
2023/03/31 01:18:20;;;;;;;9.17;3.70;;;;;;;11.43;47.90;101159.22;5032137;28;20384;-74
2023/03/31 01:21:22;;;;;;;9.35;3.75;;;;;;;11.42;47.94;101164.69;5049650;28;20442;-74
2023/03/31 01:24:12;;;;;;;8.95;3.80;;;;;;;11.42;48.02;101154.09;5050417;28;20454;-74
2023/03/31 01:26:52;;;;;;;8.43;3.92;;;;;;;11.36;48.50;101146.75;5049848;28;20357;-74
2023/03/31 01:29:55;;;;;;;8.55;4.25;;;;;;;11.46;48.63;101145.59;5049563;28;20389;-75
2023/03/31 01:32:21;;;;;;;9.43;3.88;;;;;;;11.52;48.59;101151.25;5050051;28;20364;-78
2023/03/31 01:35:24;;;;;;;8.83;4.23;;;;;;;11.52;48.73;101145.94;5052173;28;20391;-79
2023/03/31 01:38:33;;;;;;;12.00;4.90;;;;;;;11.53;49.11;101150.28;5052230;28;20372;-79
2023/03/31 01:41:14;;;;;;;12.20;5.43;;;;;;;11.40;49.73;101143.63;5052306;28;20391;-78
2023/03/31 01:44:11;;;;;;;17.15;6.68;;;;;;;11.44;49.69;101136.16;5052248;28;20467;-79
2023/03/31 01:46:51;;;;;;;14.05;7.25;;;;;;;11.36;49.67;101128.19;5051516;28;20481;-78
2023/03/31 01:49:19;;;;;;;12.02;5.47;;;;;;;11.41;50.78;101124.03;5050297;28;20377;-78
2023/03/31 01:51:54;;;;;;;10.57;4.97;;;;;;;11.44;51.30;101126.38;5051139;28;20405;-78
2023/03/31 01:54:38;;;;;;;12.50;4.87;;;;;;;11.55;50.80;101127.03;5050306;28;20865;-78
2023/03/31 01:57:21;;;;;;;9.82;4.50;;;;;;;11.65;50.74;101125.06;5031886;28;20482;-77
2023/03/31 02:00:10;;;;;;;9.83;4.30;;;;;;;11.66;50.66;101122.22;5053528;28;20449;-77
2023/03/31 02:02:42;;;;;;;10.60;4.70;;;;;;;11.71;50.78;101129.69;5074106;28;20428;-77
2023/03/31 02:05:11;;;;;;;9.73;5.40;;;;;;;11.71;50.50;101112.94;5074131;28;21206;-78
2023/03/31 02:07:44;;;;;;;12.10;5.70;;;;;;;11.76;50.45;101118.56;5066249;28;20412;-78
2023/03/31 02:10:12;;;;;;;12.88;5.38;;;;;;;11.69;50.93;101106.97;5052237;28;20381;-78
2023/03/31 02:12:42;;;;;;;11.55;5.55;;;;;;;11.69;50.51;101110.44;5035708;28;20420;-78
2023/03/31 02:15:13;;;;;;;11.57;5.73;;;;;;;11.67;50.94;101110.59;5051471;28;20530;-78
2023/03/31 02:17:44;;;;;;;17.85;10.40;;;;;;;11.54;51.52;101118.25;5032186;28;20409;-77
2023/03/31 02:20:14;;;;;;;16.55;9.63;;;;;;;11.62;51.56;101120.88;5049391;28;20403;-77
2023/03/31 02:22:42;;;;;;;12.32;9.13;;;;;;;11.70;51.58;101117.38;5048851;28;20408;-76
2023/03/31 02:25:12;;;;;;;14.82;10.82;;;;;;;11.69;51.41;101126.38;5049191;28;20381;-76
2023/03/31 02:27:41;;;;;;;10.32;5.70;;;;;;;11.78;51.39;101108.59;5049366;28;20384;-76
2023/03/31 02:30:08;;;;;;;10.02;5.80;;;;;;;11.82;51.57;101108.09;5049684;28;20387;-76
2023/03/31 02:32:42;;;;;;;11.80;5.43;;;;;;;11.91;52.27;101111.59;5048213;28;20369;-76
2023/03/31 02:35:20;;;;;;;11.50;5.57;;;;;;;11.70;53.09;101105.94;5051105;28;20388;-76
2023/03/31 02:37:48;;;;;;;8.25;4.22;;;;;;;11.58;52.08;101101.00;5048243;28;20746;-76
2023/03/31 02:40:18;;;;;;;9.07;4.30;;;;;;;11.59;51.85;101107.13;5067199;28;20413;-76
2023/03/31 02:42:43;;;;;;;9.43;5.40;;;;;;;11.60;52.33;101117.56;5051196;28;20409;-76
2023/03/31 02:45:40;;;;;;;8.82;4.78;;;;;;;11.53;52.63;101111.28;5069137;28;20379;-76
2023/03/31 02:48:09;;;;;;;9.18;4.57;;;;;;;11.44;52.80;101107.78;5072160;28;20372;-76
2023/03/31 02:50:58;;;;;;;10.10;4.32;;;;;;;11.48;52.53;101103.78;5070729;28;20373;-75
2023/03/31 02:53:55;;;;;;;11.43;5.57;;;;;;;11.59;52.35;101088.53;5058932;28;20458;-76
2023/03/31 02:56:39;;;;;;;17.77;5.78;;;;;;;11.58;52.52;101079.75;5082663;28;20383;-76
2023/03/31 02:59:32;;;;;;;12.35;7.47;;;;;;;11.68;52.52;101092.84;5051240;28;20393;-76
2023/03/31 03:02:10;;;;;;;10.68;7.32;;;;;;;11.74;52.72;101089.53;5068095;28;20486;-76
2023/03/31 03:04:41;;;;;;;29.48;26.92;;;;;;;11.77;53.12;101086.50;5068604;28;20390;-76
2023/03/31 03:07:12;;;;;;;12.80;7.27;;;;;;;11.66;53.57;101087.69;5068938;28;20386;-75
2023/03/31 03:10:19;;;;;;;13.75;7.20;;;;;;;11.72;53.63;101077.38;5034382;28;20886;-75
2023/03/31 03:12:58;;;;;;;18.75;16.75;;;;;;;11.80;53.65;101078.22;5063031;28;20441;-76
2023/03/31 03:15:30;;;;;;;13.68;7.10;;;;;;;11.80;53.67;101074.72;5068576;28;20484;-76
2023/03/31 03:17:56;;;;;;;11.50;6.35;;;;;;;11.83;53.80;101069.91;5067729;28;20387;-75
2023/03/31 03:20:22;;;;;;;11.25;5.70;;;;;;;11.78;53.97;101074.91;5068270;28;20395;-75
2023/03/31 03:22:47;;;;;;;11.23;5.82;;;;;;;11.64;54.86;101067.63;5068592;28;20415;-75
2023/03/31 03:25:16;;;;;;;9.40;5.13;;;;;;;11.46;55.62;101057.19;5070934;28;20390;-75
2023/03/31 03:27:42;;;;;;;12.50;6.18;;;;;;;11.40;55.42;101065.81;5072005;28;20391;-75
2023/03/31 03:30:10;;;;;;;10.80;5.40;;;;;;;11.38;55.40;101068.66;5072081;28;20456;-75
2023/03/31 03:32:36;;;;;;;10.48;8.18;;;;;;;11.38;55.29;101050.06;5072763;28;20375;-75
2023/03/31 03:35:03;;;;;;;9.10;5.63;;;;;;;11.42;55.03;101058.53;5072017;28;20394;-75
2023/03/31 03:37:30;;;;;;;14.15;8.95;;;;;;;11.48;54.79;101065.81;5072035;28;20915;-75
2023/03/31 03:39:55;;;;;;;10.82;5.47;;;;;;;11.37;54.96;101059.00;5063479;28;20441;-75
2023/03/31 03:42:21;;;;;;;13.13;7.57;;;;;;;11.40;54.90;101052.56;5072320;28;20410;-75
2023/03/31 03:44:46;;;;;;;10.95;5.72;;;;;;;11.46;54.51;101052.69;5072563;28;20465;-75
2023/03/31 03:47:12;;;;;;;15.23;12.50;;;;;;;11.58;54.05;101049.72;5072338;28;20424;-74
2023/03/31 03:49:38;;;;;;;10.30;5.60;;;;;;;11.67;54.07;101057.50;5071765;28;20543;-74
2023/03/31 03:52:04;;;;;;;11.30;5.40;;;;;;;11.71;53.59;101049.19;5071853;28;20503;-74
2023/03/31 03:54:29;;;;;;;13.55;9.18;;;;;;;11.78;53.51;101050.19;5062493;28;20414;-75
2023/03/31 03:56:55;;;;;;;16.58;14.48;;;;;;;11.78;53.47;101040.38;5066549;28;20395;-75
2023/03/31 03:59:21;;;;;;;11.40;6.80;;;;;;;11.83;53.37;101038.03;5083037;28;20391;-75
2023/03/31 04:01:46;;;;;;;12.37;8.33;;;;;;;11.82;53.35;101040.88;5076523;28;20399;-75
2023/03/31 04:04:12;;;;;;;13.68;11.52;;;;;;;11.83;53.59;101031.91;5071244;28;20859;-76
2023/03/31 04:06:37;;;;;;;14.50;8.17;;;;;;;11.79;53.68;101030.56;5065533;28;20392;-76
2023/03/31 04:09:03;;;;;;;10.45;8.63;;;;;;;11.81;53.33;101032.06;5062526;28;20480;-75
2023/03/31 04:11:29;;;;;;;12.23;6.53;;;;;;;11.77;53.25;101027.25;5064003;28;20390;-75
2023/03/31 04:13:55;;;;;;;12.00;6.63;;;;;;;11.77;53.49;101030.72;5065462;28;20395;-75
2023/03/31 04:16:24;;;;;;;12.50;7.05;;;;;;;11.76;53.55;101023.78;5050492;28;20484;-75
2023/03/31 04:18:55;;;;;;;9.73;5.55;;;;;;;11.77;53.67;101024.59;5048233;28;20404;-76
2023/03/31 04:21:22;;;;;;;10.23;5.65;;;;;;;11.79;53.52;101015.47;5047213;28;20448;-76
2023/03/31 04:24:00;;;;;;;8.80;5.30;;;;;;;11.78;53.73;101024.44;5048639;28;20396;-76
2023/03/31 04:26:41;;;;;;;11.87;7.30;;;;;;;11.75;53.84;101006.19;5034765;28;20792;-74
2023/03/31 04:29:08;;;;;;;12.17;5.77;;;;;;;11.71;53.78;101012.00;5044509;28;20385;-74
2023/03/31 04:31:37;;;;;;;13.10;7.93;;;;;;;11.81;53.73;100999.34;5044441;28;20394;-75
2023/03/31 04:34:05;;;;;;;11.27;7.40;;;;;;;11.76;53.76;100986.59;5045102;28;20797;-75
2023/03/31 04:36:32;;;;;;;15.50;8.45;;;;;;;11.81;53.67;101000.19;5045012;28;20410;-77
2023/03/31 04:38:59;;;;;;;16.13;8.82;;;;;;;11.78;53.65;100997.88;5045167;28;20802;-75
2023/03/31 04:41:29;;;;;;;13.73;8.27;;;;;;;11.76;53.91;100996.41;5051548;28;20742;-75
2023/03/31 04:43:54;;;;;;;13.98;7.15;;;;;;;11.77;54.05;100995.38;5033617;28;20754;-75
2023/03/31 04:46:20;;;;;;;14.45;7.22;;;;;;;11.88;53.75;100991.53;5051757;28;20381;-75
2023/03/31 04:48:46;;;;;;;13.13;6.78;;;;;;;11.95;53.78;101003.97;5051933;28;20426;-75
2023/03/31 04:51:14;;;;;;;13.53;7.20;;;;;;;11.95;53.83;100989.88;5051572;28;20401;-76
2023/03/31 04:53:39;;;;;;;13.32;6.30;;;;;;;11.97;53.85;100993.19;5050875;28;20719;-75
2023/03/31 04:56:06;;;;;;;13.30;7.07;;;;;;;12.04;53.74;100988.84;5051396;28;20876;-76
2023/03/31 04:58:32;;;;;;;17.65;7.25;;;;;;;12.15;53.54;100993.75;5051684;28;20463;-75
2023/03/31 05:00:58;;;;;;;16.50;7.88;;;;;;;12.18;54.11;101014.69;5051724;28;20492;-76
2023/03/31 05:03:23;;;;;;;13.30;7.15;;;;;;;12.18;54.16;101011.22;5052151;28;20408;-75
2023/03/31 05:05:49;;;;;;;13.67;6.77;;;;;;;12.29;54.03;101012.66;5051705;28;20396;-75
2023/03/31 05:08:14;;;;;;;14.52;6.57;;;;;;;12.42;54.03;101004.94;5051381;28;20385;-75
2023/03/31 05:10:40;;;;;;;13.85;7.05;;;;;;;12.54;53.90;101010.69;5043422;28;20384;-75
2023/03/31 05:13:05;;;;;;;14.90;7.30;;;;;;;12.61;54.28;101006.31;5049077;28;20403;-76
2023/03/31 05:15:31;;;;;;;11.77;5.93;;;;;;;12.61;54.42;101001.81;5054156;28;20803;-77
2023/03/31 05:17:57;;;;;;;13.47;7.70;;;;;;;12.69;54.16;100990.28;5060951;28;20397;-76
2023/03/31 05:20:23;;;;;;;12.32;5.25;;;;;;;12.82;54.11;100971.94;5064627;28;20713;-76
2023/03/31 05:22:49;;;;;;;8.43;4.28;;;;;;;12.93;53.98;100975.19;5066055;28;20901;-76
2023/03/31 05:25:17;;;;;;;12.10;6.28;;;;;;;13.01;53.83;100977.75;5064572;28;20400;-76
2023/03/31 05:27:46;;;;;;;11.77;5.63;;;;;;;13.16;53.45;100981.28;5063556;28;20398;-75
2023/03/31 05:30:12;;;;;;;9.75;4.47;;;;;;;13.28;53.39;100971.00;5043678;28;20413;-75
2023/03/31 05:32:37;;;;;;;10.90;4.70;;;;;;;13.35;53.17;100963.97;5064155;28;20554;-75
2023/03/31 05:35:03;;;;;;;14.73;6.13;;;;;;;13.47;52.83;100959.06;5062985;28;20391;-75
2023/03/31 05:37:29;;;;;;;8.10;4.20;;;;;;;13.53;53.01;100958.31;5043347;28;20450;-75
2023/03/31 05:39:55;;;;;;;7.55;3.70;;;;;;;13.58;52.43;100950.59;5044154;28;20426;-75
2023/03/31 05:42:20;;;;;;;10.18;4.70;;;;;;;13.71;52.25;100954.44;5062690;28;20743;-75
2023/03/31 05:44:46;;;;;;;10.32;4.30;;;;;;;13.80;52.24;100957.84;5064810;28;20859;-75
2023/03/31 05:47:12;;;;;;;9.93;4.23;;;;;;;13.81;51.97;100952.34;5062249;28;20395;-75
2023/03/31 05:49:37;;;;;;;6.03;3.50;;;;;;;13.81;52.12;100951.50;5065400;28;20383;-75
2023/03/31 05:52:05;;;;;;;9.57;4.22;;;;;;;13.94;52.03;100955.16;5065712;28;20390;-77
2023/03/31 05:54:30;;;;;;;10.23;5.23;;;;;;;14.05;51.40;100945.88;5060955;28;20464;-75
2023/03/31 05:56:56;;;;;;;13.00;5.17;;;;;;;14.18;51.27;100949.69;5061258;28;20536;-75
2023/03/31 05:59:21;;;;;;;8.80;4.50;;;;;;;14.18;51.10;100929.19;5064148;28;20404;-75
2023/03/31 06:01:47;;;;;;;10.27;4.33;;;;;;;14.18;51.04;100931.84;5063638;28;20400;-76
2023/03/31 06:04:12;;;;;;;10.80;5.00;;;;;;;14.25;51.23;100931.94;5063382;28;20398;-76
2023/03/31 06:06:38;;;;;;;9.93;4.40;;;;;;;14.29;51.41;100930.53;5060557;28;20410;-76
2023/03/31 06:09:04;;;;;;;11.17;5.00;;;;;;;14.33;51.27;100934.47;5061334;28;20376;-76
2023/03/31 06:11:30;;;;;;;12.40;5.35;;;;;;;14.41;51.36;100937.03;5064169;28;20755;-75
2023/03/31 06:13:56;;;;;;;11.13;5.20;;;;;;;14.44;51.64;100936.66;5064526;28;20399;-76
2023/03/31 06:16:21;;;;;;;11.83;5.60;;;;;;;14.41;51.68;100929.03;5061257;28;20414;-76
2023/03/31 06:18:47;;;;;;;11.33;5.20;;;;;;;14.45;51.56;100919.63;5062192;28;20728;-76
2023/03/31 06:21:15;;;;;;;11.90;5.37;;;;;;;14.59;51.37;100909.94;5063425;28;20436;-77
2023/03/31 06:23:43;;;;;;;9.97;4.40;;;;;;;14.60;50.83;100930.25;5066897;28;20389;-78
2023/03/31 06:26:15;;;;;;;14.68;4.38;;;;;;;14.63;50.64;100929.88;5064245;28;20883;-75
2023/03/31 06:28:42;;;;;;;10.70;4.93;;;;;;;14.66;50.45;100937.50;5069031;28;20379;-78
2023/03/31 06:31:11;;;;;;;11.73;4.55;;;;;;;14.76;50.23;100934.50;5069040;28;20390;-76
2023/03/31 06:33:38;;;;;;;10.18;4.00;;;;;;;14.86;50.04;100940.34;5069377;28;20388;-78
2023/03/31 06:36:05;;;;;;;10.90;4.17;;;;;;;14.99;50.05;100939.63;5054857;28;20464;-75
2023/03/31 06:38:33;;;;;;;12.15;3.65;;;;;;;15.06;50.11;100939.69;5065743;28;20869;-76
2023/03/31 06:40:58;;;;;;;11.80;3.60;;;;;;;15.22;49.81;100926.03;5068930;28;20383;-76
2023/03/31 06:43:24;;;;;;;9.98;3.58;;;;;;;15.29;49.35;100926.09;5069055;28;20399;-77
2023/03/31 06:45:52;;;;;;;9.10;4.00;;;;;;;15.41;49.07;100923.66;5066870;28;20398;-77
2023/03/31 06:48:17;;;;;;;8.73;3.75;;;;;;;15.50;48.99;100922.47;5067979;28;20939;-76
2023/03/31 06:50:43;;;;;;;14.20;5.03;;;;;;;15.51;49.04;100920.66;5069587;28;20469;-76
2023/03/31 06:53:08;;;;;;;14.97;7.07;;;;;;;15.45;48.88;100920.41;5068568;28;20422;-76
2023/03/31 06:55:35;;;;;;;17.08;7.93;;;;;;;15.53;48.93;100916.75;5069157;28;20394;-75
2023/03/31 06:58:00;;;;;;;19.45;11.75;;;;;;;15.53;48.99;100916.75;5068460;28;20386;-76
2023/03/31 07:00:26;;;;;;;39.53;25.05;;;;;;;15.70;48.94;100929.78;5054335;28;20709;-76
2023/03/31 07:02:52;;;;;;;15.77;5.03;;;;;;;15.71;48.24;100921.56;5073798;28;20410;-76
2023/03/31 07:05:18;;;;;;;13.00;4.50;;;;;;;15.86;47.95;100924.97;5065556;28;20391;-76
2023/03/31 07:07:44;;;;;;;10.00;4.13;;;;;;;15.92;47.71;100914.47;5073061;28;20387;-76
2023/03/31 07:10:10;;;;;;;11.45;3.88;;;;;;;15.83;47.88;100916.53;5072660;28;20379;-76
2023/03/31 07:12:36;;;;;;;11.13;4.22;;;;;;;16.00;47.74;100923.16;5072960;28;20398;-75
2023/03/31 07:15:01;;;;;;;9.93;3.17;;;;;;;16.10;47.22;100921.94;5072549;28;20920;-76
2023/03/31 07:17:29;;;;;;;9.95;3.60;;;;;;;16.20;46.99;100930.41;5055762;28;20471;-77
2023/03/31 07:19:54;;;;;;;12.10;3.47;;;;;;;16.34;46.91;100918.72;5055768;28;20389;-77
2023/03/31 07:22:20;;;;;;;10.65;3.47;;;;;;;16.39;46.83;100943.00;5074033;28;20497;-77
2023/03/31 07:24:45;;;;;;;10.23;3.90;;;;;;;16.71;46.37;100929.03;5055712;28;20914;-76
2023/03/31 07:27:11;;;;;;;9.93;3.30;;;;;;;16.81;46.17;100930.28;5072466;28;20451;-75
2023/03/31 07:29:36;;;;;;;6.33;3.20;;;;;;;16.89;46.20;100915.91;5056518;28;20397;-77
2023/03/31 07:32:02;;;;;;;7.97;3.72;;;;;;;17.12;45.99;100920.81;5073882;28;20451;-77
2023/03/31 07:34:27;;;;;;;8.33;3.37;;;;;;;17.24;45.87;100915.66;5056166;28;20391;-76
2023/03/31 07:36:56;;;;;;;9.40;3.70;;;;;;;17.18;45.39;100901.25;5075440;28;20970;-76
2023/03/31 07:39:21;;;;;;;9.60;3.45;;;;;;;17.30;45.23;100903.28;5073010;28;20383;-75
2023/03/31 07:41:47;;;;;;;7.72;3.20;;;;;;;17.17;44.85;100901.44;5056683;28;20434;-76
2023/03/31 07:44:12;;;;;;;6.00;2.57;;;;;;;17.12;44.07;100898.56;5073324;28;20443;-76
2023/03/31 07:46:38;;;;;;;7.72;3.00;;;;;;;17.14;44.27;100899.19;5061394;28;20379;-76
2023/03/31 07:49:04;;;;;;;9.17;3.80;;;;;;;17.33;44.21;100890.28;5066485;28;20371;-75
2023/03/31 07:51:29;;;;;;;9.50;3.53;;;;;;;17.49;43.73;100902.41;5070742;28;20379;-78
2023/03/31 07:53:56;;;;;;;6.00;2.28;;;;;;;17.41;43.12;100883.88;5075452;28;20445;-77
2023/03/31 07:56:23;;;;;;;7.68;2.90;;;;;;;17.45;42.87;100906.53;5074701;28;20477;-77
2023/03/31 07:58:50;;;;;;;10.15;4.68;;;;;;;17.55;42.86;100890.00;5072724;28;20379;-77
2023/03/31 08:01:17;;;;;;;8.63;3.63;;;;;;;17.86;42.40;100893.81;5067049;28;20472;-76
2023/03/31 08:03:46;;;;;;;12.80;7.33;;;;;;;18.00;42.16;100889.22;5073827;28;20377;-76
2023/03/31 08:06:18;;;;;;;7.32;4.72;;;;;;;18.10;41.57;100903.81;5093257;28;20484;-76
2023/03/31 08:08:44;;;;;;;8.85;3.28;;;;;;;18.08;41.51;100895.16;5075261;28;20373;-79
2023/03/31 08:11:09;;;;;;;7.43;2.97;;;;;;;17.68;41.98;100892.66;5078673;28;20720;-77
2023/03/31 08:13:35;;;;;;;10.47;5.37;;;;;;;17.65;42.39;100898.44;5075136;28;20834;-76
2023/03/31 08:16:01;;;;;;;8.20;4.22;;;;;;;17.62;42.40;100901.53;5068629;28;20410;-75
2023/03/31 08:18:26;;;;;;;8.90;3.43;;;;;;;17.86;41.82;100908.09;5068155;28;20894;-77
2023/03/31 08:20:52;;;;;;;7.80;3.50;;;;;;;18.13;41.57;100911.44;5070334;28;20440;-77
2023/03/31 08:23:17;;;;;;;6.93;3.10;;;;;;;18.14;41.47;100907.72;5055147;28;20415;-77
2023/03/31 08:25:43;;;;;;;22.50;14.05;;;;;;;18.27;41.72;100900.63;5065293;28;20748;-77
2023/03/31 08:28:12;;;;;;;6.67;3.00;;;;;;;18.18;41.19;100900.03;5090153;28;20375;-77
2023/03/31 08:30:40;;;;;;;7.03;3.42;;;;;;;18.29;41.46;100906.59;5083557;28;20379;-78
2023/03/31 08:33:06;;;;;;;9.75;3.70;;;;;;;18.06;41.44;100907.13;5073578;28;20490;-77
2023/03/31 08:35:33;;;;;;;8.30;4.68;;;;;;;18.31;41.65;100897.31;5066737;28;20827;-79
2023/03/31 08:37:59;;;;;;;7.45;4.30;;;;;;;18.50;41.00;100897.38;5072877;28;20418;-77
2023/03/31 08:40:27;;;;;;;9.20;5.13;;;;;;;18.49;41.06;100903.75;5066192;28;20410;-77
2023/03/31 08:42:56;;;;;;;9.65;4.60;;;;;;;18.52;40.91;100889.91;5062278;28;20410;-77
2023/03/31 08:45:31;;;;;;;9.87;4.00;;;;;;;18.59;40.48;100900.63;5070595;28;20379;-77
2023/03/31 08:48:03;;;;;;;6.05;2.35;;;;;;;18.40;40.14;100891.66;5068648;28;20452;-77
2023/03/31 08:50:33;;;;;;;5.57;2.50;;;;;;;17.98;40.87;100877.91;5064664;28;20376;-77
2023/03/31 08:53:10;;;;;;;9.95;3.17;;;;;;;18.21;41.07;100893.44;5073116;28;20379;-77
2023/03/31 08:55:47;;;;;;;5.90;3.30;;;;;;;18.40;41.15;100876.41;5079517;28;20407;-77
2023/03/31 08:58:25;;;;;;;9.60;3.90;;;;;;;18.88;40.40;100881.16;5055132;28;20890;-77
2023/03/31 09:01:03;;;;;;;7.53;3.30;;;;;;;18.68;39.79;100869.75;5065780;28;20486;-77
2023/03/31 09:03:34;;;;;;;8.73;3.15;;;;;;;18.54;39.66;100853.75;5069038;28;20479;-79
2023/03/31 09:06:05;;;;;;;9.23;3.30;;;;;;;18.62;40.07;100871.47;5059289;28;20740;-79
2023/03/31 09:08:32;;;;;;;9.65;3.30;;;;;;;18.70;39.77;100859.63;5049577;28;20397;-78
2023/03/31 09:11:33;;;;;;;6.50;2.65;;;;;;;18.67;39.44;100866.25;5059356;28;20395;-78
2023/03/31 09:14:21;;;;;;;6.13;2.90;;;;;;;18.77;39.36;100868.44;5061712;28;20391;-78
2023/03/31 09:16:52;;;;;;;6.78;3.00;;;;;;;18.76;39.28;100860.59;5001252;28;1901692;-80
2023/03/31 09:19:34;;;;;;;9.32;3.53;;;;;;;18.90;39.81;100871.00;5068203;28;20396;-78
2023/03/31 09:22:02;;;;;;;5.97;3.03;;;;;;;19.01;39.30;100874.03;5065969;28;20402;-76
2023/03/31 09:24:46;;;;;;;5.47;2.60;;;;;;;18.66;39.47;100855.72;5067020;28;20788;-77
2023/03/31 09:27:12;;;;;;;6.18;2.50;;;;;;;18.73;39.23;100859.19;5061909;28;20381;-76
2023/03/31 09:30:01;;;;;;;8.27;3.57;;;;;;;18.99;39.25;100857.31;5064048;28;20520;-76
2023/03/31 09:32:31;;;;;;;6.55;2.80;;;;;;;19.07;39.10;100851.66;5059990;28;20389;-77
2023/03/31 09:35:24;;;;;;;7.90;2.93;;;;;;;19.16;38.80;100846.78;5052518;28;20524;-76
2023/03/31 09:37:50;;;;;;;7.80;2.97;;;;;;;18.95;38.52;100851.56;5063209;28;20430;-78
2023/03/31 09:40:24;;;;;;;7.70;2.90;;;;;;;19.22;38.88;100840.53;5054627;28;20391;-76
2023/03/31 09:42:58;;;;;;;9.10;3.63;;;;;;;19.29;38.19;100831.34;5071790;28;20396;-77
2023/03/31 09:45:24;;;;;;;12.68;8.70;;;;;;;19.25;38.36;100838.22;5071065;28;20401;-76
2023/03/31 09:47:53;;;;;;;6.18;4.20;;;;;;;19.36;38.29;100833.16;5055263;28;20379;-77
2023/03/31 09:50:19;;;;;;;5.63;2.88;;;;;;;19.29;37.91;100827.84;5072126;28;20393;-76
2023/03/31 09:52:51;;;;;;;6.50;4.20;;;;;;;19.43;38.03;100818.56;5071672;28;20478;-79
2023/03/31 09:55:22;;;;;;;4.30;2.40;;;;;;;19.55;37.86;100809.72;5072217;28;20375;-78
2023/03/31 09:57:48;;;;;;;6.10;3.00;;;;;;;19.52;37.94;100802.09;5069784;28;20387;-76
2023/03/31 10:00:21;;;;;;;3.80;2.30;;;;;;;19.53;37.51;100820.72;5070140;28;20415;-77
2023/03/31 10:02:51;;;;;;;4.60;2.45;;;;;;;19.74;37.43;100811.38;5071026;28;20502;-77
2023/03/31 10:05:28;;;;;;;6.30;2.85;;;;;;;19.78;37.01;100807.16;5070768;28;20786;-77
2023/03/31 10:08:13;;;;;;;5.20;2.47;;;;;;;19.82;36.96;100799.44;5069148;28;20894;-77
2023/03/31 10:10:44;;;;;;;7.13;3.17;;;;;;;19.86;37.21;100787.19;5067914;28;20722;-77
2023/03/31 10:13:15;;;;;;;7.93;2.80;;;;;;;20.00;37.09;100785.13;5069270;28;20379;-76
2023/03/31 10:15:40;;;;;;;5.40;2.20;;;;;;;19.99;36.46;100781.59;5070277;28;20410;-76
2023/03/31 10:18:13;;;;;;;5.30;2.33;;;;;;;19.95;36.60;100782.28;5069939;28;20391;-78
2023/03/31 10:20:43;;;;;;;7.53;2.75;;;;;;;20.12;36.27;100769.81;5069932;28;20468;-77
2023/03/31 10:23:26;;;;;;;5.97;2.83;;;;;;;19.98;35.64;100773.75;5071171;28;20416;-76
2023/03/31 10:25:52;;;;;;;5.00;2.75;;;;;;;19.89;35.74;100781.34;5073203;28;20474;-77
2023/03/31 10:28:20;;;;;;;3.92;2.05;;;;;;;19.84;35.67;100765.06;5071923;28;20401;-77
2023/03/31 10:30:51;;;;;;;3.85;2.10;;;;;;;19.95;35.40;100767.00;5071399;28;20903;-77
2023/03/31 10:33:23;;;;;;;4.63;2.20;;;;;;;20.04;35.03;100754.84;5072055;28;20383;-76
2023/03/31 10:35:57;;;;;;;7.60;2.30;;;;;;;19.81;35.10;100752.91;5053219;28;20391;-76
2023/03/31 10:38:28;;;;;;;6.35;2.58;;;;;;;19.60;35.40;100746.16;5071140;28;20382;-75
2023/03/31 10:40:55;;;;;;;5.18;2.65;;;;;;;19.68;35.73;100745.84;5071765;28;20410;-76
2023/03/31 10:43:26;;;;;;;4.88;2.40;;;;;;;20.13;35.12;100741.00;5058256;28;20973;-75
2023/03/31 10:45:59;;;;;;;5.70;2.45;;;;;;;20.05;34.83;100732.22;5052143;28;20458;-76
2023/03/31 10:48:33;;;;;;;7.32;2.53;;;;;;;20.18;34.64;100715.03;5051460;28;20396;-76
2023/03/31 10:51:03;;;;;;;8.30;2.40;;;;;;;20.08;34.56;100738.19;5061387;28;20384;-76
2023/03/31 10:53:29;;;;;;;6.18;2.50;;;;;;;20.17;34.41;100734.94;5071451;28;20374;-76
2023/03/31 10:56:13;;;;;;;6.95;3.08;;;;;;;20.37;34.63;100728.41;5070457;28;20375;-77
2023/03/31 10:58:49;;;;;;;10.13;2.70;;;;;;;20.20;34.22;100731.81;5058990;28;20452;-76
2023/03/31 11:01:44;;;;;;;6.35;2.15;;;;;;;20.32;34.45;100736.34;5070761;28;20398;-76
2023/03/31 11:04:28;;;;;;;8.55;2.47;;;;;;;20.28;33.94;100719.03;5070915;28;20383;-76
2023/03/31 11:07:10;;;;;;;12.98;8.07;;;;;;;20.23;34.74;100719.72;5070995;28;20477;-76
2023/03/31 11:09:42;;;;;;;9.30;6.57;;;;;;;20.37;34.07;100707.69;5071923;28;20845;-76
2023/03/31 11:12:07;;;;;;;8.18;2.72;;;;;;;20.26;33.77;100705.81;5070567;28;20390;-77
2023/03/31 11:14:58;;;;;;;7.37;2.83;;;;;;;20.18;34.17;100720.44;5081481;28;20742;-76
2023/03/31 11:17:48;;;;;;;11.07;2.67;;;;;;;20.35;34.22;100701.72;5091678;28;20393;-76
2023/03/31 11:20:26;;;;;;;4.63;2.53;;;;;;;20.43;33.91;100693.25;5092088;28;20444;-75
2023/03/31 11:23:09;;;;;;;9.27;2.83;;;;;;;20.31;33.37;100684.41;5091264;28;20401;-75
2023/03/31 11:25:42;;;;;;;9.80;3.22;;;;;;;20.65;33.84;100681.91;5092116;28;20381;-77
2023/03/31 11:28:34;;;;;;;7.88;2.50;;;;;;;20.68;33.56;100676.03;5088093;28;20458;-78
2023/03/31 11:31:27;;;;;;;6.25;2.30;;;;;;;20.82;33.25;100665.81;5072133;28;20792;-76
2023/03/31 11:34:16;;;;;;;7.18;2.53;;;;;;;20.86;33.06;100687.72;5070957;28;20375;-77
2023/03/31 11:37:03;;;;;;;5.70;2.40;;;;;;;20.65;33.21;100663.03;5070600;28;20393;-75
2023/03/31 11:39:40;;;;;;;5.37;1.90;;;;;;;20.19;33.26;100662.88;5060609;28;20514;-76